Time;durP1;ratioP1;P1;durP2;ratioP2;P2;SDS_P1;SDS_P2;PMS_P1;PMS_P2;Temp;Humidity;BMP_temperature;BMP_pressure;BME280_temperature;BME280_humidity;BME280_pressure;Samples;Min_cycle;Max_cycle;Signal;HPM_P1;HPM_P2
2022/07/31 00:00:25;;;;;;;0.70;0.13;;;23.40;99.90;;;;;;4994358;28;20616;-75
2022/07/31 00:02:53;;;;;;;0.70;0.10;;;23.40;99.90;;;;;;4994341;28;20463;-77
2022/07/31 00:05:22;;;;;;;0.70;0.10;;;23.40;99.90;;;;;;4994350;28;20452;-76
2022/07/31 00:07:50;;;;;;;0.70;0.20;;;23.40;99.90;;;;;;4994253;28;20496;-76
2022/07/31 00:10:19;;;;;;;0.70;0.20;;;23.30;99.90;;;;;;4993694;28;20441;-76
2022/07/31 00:12:48;;;;;;;0.70;0.20;;;23.40;99.90;;;;;;4994157;28;20487;-76
2022/07/31 00:15:16;;;;;;;0.70;0.20;;;23.40;99.90;;;;;;4994163;28;20456;-77
2022/07/31 00:17:44;;;;;;;0.70;0.20;;;23.40;99.90;;;;;;4993628;28;20516;-77
2022/07/31 00:20:15;;;;;;;0.70;0.10;;;23.40;99.90;;;;;;4994356;28;20542;-76
2022/07/31 00:22:46;;;;;;;0.70;0.13;;;23.40;99.90;;;;;;4993827;28;20445;-75
2022/07/31 00:25:15;;;;;;;0.70;0.10;;;23.40;99.90;;;;;;4994037;28;20433;-75
2022/07/31 00:27:43;;;;;;;0.70;0.10;;;23.30;99.90;;;;;;4984824;28;20950;-77
2022/07/31 00:30:15;;;;;;;0.70;0.20;;;23.30;99.90;;;;;;4993712;28;20453;-77
2022/07/31 00:32:43;;;;;;;0.70;0.20;;;23.30;99.90;;;;;;4993633;28;20489;-77
2022/07/31 00:35:12;;;;;;;0.70;0.20;;;23.20;99.90;;;;;;4994114;28;20459;-76
2022/07/31 00:37:41;;;;;;;0.70;0.10;;;23.20;99.90;;;;;;4993692;28;20482;-77
2022/07/31 00:40:12;;;;;;;0.70;0.10;;;23.20;99.90;;;;;;4993887;28;20877;-75
2022/07/31 00:42:40;;;;;;;0.70;0.10;;;23.30;99.90;;;;;;4994124;28;20500;-77
2022/07/31 00:45:09;;;;;;;0.70;0.20;;;23.20;99.90;;;;;;4993897;28;20453;-75
2022/07/31 00:47:41;;;;;;;0.70;0.10;;;23.30;99.90;;;;;;4993332;28;20461;-75
2022/07/31 00:50:11;;;;;;;0.70;0.10;;;23.30;99.90;;;;;;4993256;28;20449;-76
2022/07/31 00:52:40;;;;;;;0.70;0.10;;;23.20;99.90;;;;;;4993592;28;20473;-77
2022/07/31 00:55:09;;;;;;;0.70;0.20;;;23.20;99.90;;;;;;4993127;28;20445;-78
2022/07/31 00:57:37;;;;;;;0.70;0.20;;;23.20;99.90;;;;;;4993281;28;20465;-77
2022/07/31 01:00:06;;;;;;;0.70;0.20;;;23.30;99.90;;;;;;4982970;28;20826;-77
2022/07/31 01:02:34;;;;;;;0.70;0.10;;;23.30;99.90;;;;;;4974353;28;20446;-76
2022/07/31 01:05:04;;;;;;;0.70;0.10;;;23.30;99.90;;;;;;4973847;28;20446;-76
2022/07/31 01:07:32;;;;;;;0.70;0.20;;;23.30;99.90;;;;;;4973262;28;20469;-76
2022/07/31 01:10:04;;;;;;;0.70;0.10;;;23.30;99.90;;;;;;4973707;28;20446;-76
2022/07/31 01:12:38;;;;;;;0.70;0.10;;;23.30;99.90;;;;;;4973268;28;21012;-78
2022/07/31 01:15:11;;;;;;;0.70;0.10;;;23.30;99.90;;;;;;4973477;28;20471;-75
2022/07/31 01:17:42;;;;;;;0.70;0.20;;;23.30;99.90;;;;;;4973435;28;20466;-77
2022/07/31 01:20:12;;;;;;;0.70;0.20;;;23.30;99.90;;;;;;4973661;28;20450;-75
2022/07/31 01:23:07;;;;;;;0.70;0.10;;;23.30;99.90;;;;;;4973112;28;20466;-76
2022/07/31 01:25:44;;;;;;;0.70;0.20;;;23.30;99.90;;;;;;4973147;28;20454;-75
2022/07/31 01:28:24;;;;;;;0.70;0.10;;;23.30;99.90;;;;;;4977915;28;20455;-77
2022/07/31 01:31:01;;;;;;;0.70;0.10;;;23.30;99.90;;;;;;4992500;28;20426;-78
2022/07/31 01:33:53;;;;;;;0.70;0.20;;;23.30;99.90;;;;;;4992388;28;20448;-76
2022/07/31 01:36:26;;;;;;;0.70;0.10;;;23.30;99.90;;;;;;4992191;28;20481;-76
2022/07/31 01:38:56;;;;;;;0.70;0.10;;;23.30;99.90;;;;;;4992367;28;20540;-76
2022/07/31 01:41:29;;;;;;;0.70;0.20;;;23.20;99.90;;;;;;4992602;28;20442;-76
2022/07/31 01:43:58;;;;;;;0.80;0.20;;;23.20;99.90;;;;;;4992717;28;20445;-75
2022/07/31 01:46:28;;;;;;;0.70;0.20;;;23.20;99.90;;;;;;4992539;28;20507;-77
2022/07/31 01:48:57;;;;;;;0.70;0.10;;;23.20;99.90;;;;;;4994200;28;20441;-76
2022/07/31 01:51:27;;;;;;;0.70;0.10;;;23.20;99.90;;;;;;5010367;28;20444;-75
2022/07/31 01:53:56;;;;;;;0.70;0.20;;;23.10;99.90;;;;;;5011506;28;20480;-76
2022/07/31 01:56:25;;;;;;;0.70;0.20;;;23.10;99.90;;;;;;4984881;28;20982;-77
2022/07/31 01:58:54;;;;;;;0.70;0.10;;;23.10;99.90;;;;;;4972300;28;20450;-76
2022/07/31 02:01:25;;;;;;;0.70;0.20;;;23.00;99.90;;;;;;4971814;28;20807;-76
2022/07/31 02:03:56;;;;;;;0.70;0.10;;;23.00;99.90;;;;;;4972914;28;20463;-75
2022/07/31 02:06:28;;;;;;;0.70;0.10;;;23.00;99.90;;;;;;4973931;28;20517;-75
2022/07/31 02:08:56;;;;;;;0.70;0.10;;;23.00;99.90;;;;;;4976697;28;20450;-76
2022/07/31 02:11:24;;;;;;;0.70;0.10;;;23.00;99.90;;;;;;4996024;28;20449;-76
2022/07/31 02:13:54;;;;;;;0.70;0.10;;;23.00;99.90;;;;;;4995800;28;20481;-76
2022/07/31 02:16:23;;;;;;;0.70;0.20;;;23.00;99.90;;;;;;4996018;28;20490;-77
2022/07/31 02:18:52;;;;;;;0.70;0.10;;;23.00;99.90;;;;;;4996048;28;20441;-75
2022/07/31 02:21:21;;;;;;;0.70;0.10;;;23.00;99.90;;;;;;4995975;28;20787;-77
2022/07/31 02:23:49;;;;;;;0.70;0.20;;;23.00;99.90;;;;;;4995590;28;20445;-76
2022/07/31 02:26:17;;;;;;;0.70;0.10;;;23.00;99.90;;;;;;4995803;28;20479;-77
2022/07/31 02:28:47;;;;;;;1.90;0.83;;;23.00;99.90;;;;;;4995670;28;20942;-78
2022/07/31 02:31:16;;;;;;;0.70;0.10;;;23.00;99.90;;;;;;4996021;28;20794;-77
2022/07/31 02:33:46;;;;;;;0.70;0.20;;;22.90;99.90;;;;;;4995984;28;20605;-77
2022/07/31 02:36:17;;;;;;;0.70;0.10;;;22.80;99.90;;;;;;4995444;28;20469;-76
2022/07/31 02:38:48;;;;;;;0.70;0.10;;;22.80;99.90;;;;;;4995593;28;20448;-75
2022/07/31 02:41:17;;;;;;;0.70;0.20;;;22.70;99.90;;;;;;4995731;28;20424;-75
2022/07/31 02:43:46;;;;;;;0.70;0.10;;;22.70;99.90;;;;;;4995363;28;20973;-76
2022/07/31 02:46:15;;;;;;;0.70;0.20;;;22.70;99.90;;;;;;4995392;28;20469;-78
2022/07/31 02:48:44;;;;;;;0.70;0.20;;;22.70;99.90;;;;;;4995358;28;20449;-75
2022/07/31 02:51:13;;;;;;;0.70;0.10;;;22.70;99.90;;;;;;4995265;28;20528;-74
2022/07/31 02:53:41;;;;;;;0.70;0.20;;;23.50;99.90;;;;;;4995216;28;20587;-76
2022/07/31 02:56:11;;;;;;;0.70;0.10;;;22.70;99.90;;;;;;4995406;28;20982;-75
2022/07/31 02:58:40;;;;;;;0.70;0.10;;;22.80;99.90;;;;;;4995694;28;20445;-75
2022/07/31 03:01:09;;;;;;;0.70;0.10;;;22.70;99.90;;;;;;4995883;28;20437;-75
2022/07/31 03:03:37;;;;;;;0.70;0.20;;;22.70;99.90;;;;;;4995728;28;20873;-76
2022/07/31 03:06:05;;;;;;;0.70;0.20;;;22.70;99.90;;;;;;4995453;28;20470;-79
2022/07/31 03:08:33;;;;;;;0.70;0.10;;;22.70;99.90;;;;;;4995502;28;20487;-74
2022/07/31 03:11:02;;;;;;;0.70;0.20;;;;;;;;;;4995207;28;20445;-76
2022/07/31 03:13:33;;;;;;;0.70;0.20;;;22.60;99.90;;;;;;4995289;28;20484;-76
2022/07/31 03:16:03;;;;;;;0.90;0.20;;;22.40;99.90;;;;;;4994906;28;20473;-77
2022/07/31 03:18:32;;;;;;;0.70;0.10;;;22.30;99.90;;;;;;4993569;28;20445;-75
2022/07/31 03:21:00;;;;;;;10.43;3.20;;;22.30;99.90;;;;;;4977200;28;20829;-76
2022/07/31 03:23:34;;;;;;;0.70;0.10;;;22.20;99.90;;;;;;4975518;28;20537;-77
2022/07/31 03:26:03;;;;;;;0.70;0.20;;;22.20;99.90;;;;;;4975588;28;21016;-76
2022/07/31 03:28:34;;;;;;;0.70;0.10;;;22.20;99.90;;;;;;4983583;28;20480;-77
2022/07/31 03:31:02;;;;;;;0.70;0.17;;;;;;;;;;4994987;28;20815;-76
2022/07/31 03:33:30;;;;;;;0.70;0.10;;;22.30;99.90;;;;;;4995163;28;20478;-77
2022/07/31 03:35:58;;;;;;;0.70;0.10;;;;;;;;;;4994769;28;20507;-75
2022/07/31 03:38:26;;;;;;;0.70;0.10;;;22.30;99.90;;;;;;4995495;28;20523;-75
2022/07/31 03:41:10;;;;;;;0.70;0.10;;;22.30;99.90;;;;;;4994331;28;20476;-76
2022/07/31 03:43:41;;;;;;;0.70;0.13;;;22.30;99.90;;;;;;4994690;28;20500;-76
2022/07/31 03:46:16;;;;;;;0.70;0.20;;;22.20;99.90;;;;;;4994173;28;20471;-75
2022/07/31 03:48:45;;;;;;;0.70;0.10;;;22.20;99.90;;;;;;4994373;28;20449;-76
2022/07/31 03:51:13;;;;;;;0.70;0.10;;;22.20;99.90;;;;;;4994345;28;20455;-75
2022/07/31 03:53:42;;;;;;;0.70;0.20;;;22.20;99.90;;;;;;4994399;28;20507;-75
2022/07/31 03:56:10;;;;;;;0.70;0.10;;;22.20;99.90;;;;;;4993835;28;20806;-77
2022/07/31 03:58:40;;;;;;;0.70;0.20;;;22.20;99.90;;;;;;4994330;28;20445;-77
2022/07/31 04:01:08;;;;;;;0.70;0.20;;;22.10;99.90;;;;;;4994734;28;20504;-77
2022/07/31 04:03:39;;;;;;;0.70;0.10;;;22.10;99.90;;;;;;4994742;28;20436;-77
2022/07/31 04:06:07;;;;;;;0.70;0.10;;;22.00;99.90;;;;;;4994413;28;20465;-76
2022/07/31 04:08:35;;;;;;;0.70;0.10;;;21.90;99.90;;;;;;4994291;28;20456;-76
2022/07/31 04:11:03;;;;;;;0.70;0.10;;;21.90;99.90;;;;;;4993901;28;20449;-76
2022/07/31 04:13:31;;;;;;;0.70;0.20;;;21.80;99.90;;;;;;4994318;28;20495;-77
2022/07/31 04:16:00;;;;;;;0.70;0.20;;;21.80;99.90;;;;;;4994859;28;20476;-77
2022/07/31 04:18:28;;;;;;;0.80;0.37;;;21.70;99.90;;;;;;4995182;28;20450;-76
2022/07/31 04:20:56;;;;;;;0.70;0.10;;;21.70;99.90;;;;;;4994778;28;20485;-76
2022/07/31 04:23:24;;;;;;;0.70;0.10;;;21.70;99.90;;;;;;4995151;28;20456;-77
2022/07/31 04:25:59;;;;;;;0.70;0.20;;;21.70;99.90;;;;;;4995021;28;20476;-76
2022/07/31 04:28:27;;;;;;;0.70;0.10;;;21.70;99.90;;;;;;4995225;28;20453;-77
2022/07/31 04:30:55;;;;;;;0.70;0.10;;;21.70;99.90;;;;;;4977970;28;20484;-77
2022/07/31 04:33:24;;;;;;;0.70;0.10;;;21.70;99.90;;;;;;4976404;28;20485;-75
2022/07/31 04:35:52;;;;;;;0.70;0.20;;;21.70;99.90;;;;;;4975737;28;20450;-75
2022/07/31 04:38:20;;;;;;;0.70;0.10;;;21.80;99.90;;;;;;4976379;28;20939;-74
2022/07/31 04:40:48;;;;;;;0.70;0.10;;;21.90;99.90;;;;;;4976052;28;20461;-75
2022/07/31 04:43:16;;;;;;;0.70;0.20;;;21.90;99.90;;;;;;4976030;28;20454;-77
2022/07/31 04:45:44;;;;;;;0.70;0.10;;;22.00;99.90;;;;;;4995113;28;21062;-77
2022/07/31 04:48:12;;;;;;;0.70;0.20;;;22.00;99.90;;;;;;4995330;28;20464;-76
2022/07/31 04:50:41;;;;;;;0.70;0.20;;;22.00;99.90;;;;;;4995381;28;20449;-75
2022/07/31 04:53:09;;;;;;;2.20;1.07;;;22.00;99.90;;;;;;4995379;28;20456;-75
2022/07/31 04:55:37;;;;;;;0.70;0.20;;;22.00;99.90;;;;;;4994919;28;20484;-77
2022/07/31 04:58:05;;;;;;;0.70;0.20;;;22.00;99.90;;;;;;4993921;28;20815;-76
2022/07/31 05:00:33;;;;;;;0.70;0.20;;;21.80;99.90;;;;;;4995153;28;20449;-76
2022/07/31 05:03:01;;;;;;;0.70;0.10;;;21.80;99.90;;;;;;4994860;28;20922;-77
2022/07/31 05:05:29;;;;;;;0.70;0.13;;;21.80;99.90;;;;;;4994693;28;20716;-76
2022/07/31 05:07:58;;;;;;;0.70;0.10;;;21.80;99.90;;;;;;4994760;28;20473;-77
2022/07/31 05:13:11;;;;;;;0.70;0.10;;;21.70;99.90;;;;;;4976531;28;20809;-76
2022/07/31 05:15:42;;;;;;;0.70;0.20;;;21.80;99.90;;;;;;4975476;28;20482;-76
2022/07/31 05:18:11;;;;;;;0.70;0.20;;;21.80;99.90;;;;;;4975940;28;20538;-76
2022/07/31 05:20:39;;;;;;;0.70;0.10;;;21.80;99.90;;;;;;4975914;28;20465;-76
2022/07/31 05:23:08;;;;;;;0.70;0.10;;;21.80;99.90;;;;;;4975418;28;20542;-76
2022/07/31 05:25:36;;;;;;;0.70;0.10;;;21.90;99.90;;;;;;4975989;28;20450;-77
2022/07/31 05:28:04;;;;;;;0.70;0.10;;;21.90;99.90;;;;;;4979026;28;20475;-76
2022/07/31 05:30:36;;;;;;;0.70;0.20;;;21.90;99.90;;;;;;4995296;28;20459;-75
2022/07/31 05:33:05;;;;;;;0.70;0.10;;;21.90;99.90;;;;;;4994707;28;20453;-76
2022/07/31 05:35:33;;;;;;;0.70;0.20;;;21.90;99.90;;;;;;4982668;28;20565;-77
2022/07/31 05:38:01;;;;;;;0.70;0.10;;;22.00;99.90;;;;;;4983200;28;20465;-76
2022/07/31 05:40:30;;;;;;;0.70;0.20;;;22.00;99.90;;;;;;4991137;28;20450;-75
2022/07/31 05:42:58;;;;;;;0.70;0.10;;;22.00;99.90;;;;;;4983526;28;20446;-75
2022/07/31 05:45:26;;;;;;;0.70;0.20;;;22.00;99.90;;;;;;4983058;28;20449;-76
2022/07/31 05:47:54;;;;;;;0.70;0.10;;;22.00;99.90;;;;;;4984397;28;20477;-74
2022/07/31 05:50:22;;;;;;;0.70;0.20;;;22.10;99.90;;;;;;4984367;28;20513;-75
2022/07/31 05:52:50;;;;;;;0.70;0.20;;;22.10;99.90;;;;;;4982276;28;20818;-74
2022/07/31 05:55:19;;;;;;;0.70;0.17;;;22.10;99.90;;;;;;4983130;28;20913;-75
2022/07/31 05:57:48;;;;;;;0.70;0.10;;;22.10;99.90;;;;;;4992789;28;20475;-76
2022/07/31 06:00:17;;;;;;;0.70;0.10;;;22.10;99.90;;;;;;4993023;28;20964;-76
2022/07/31 06:02:45;;;;;;;0.70;0.10;;;22.10;99.90;;;;;;4982854;28;20486;-75
2022/07/31 06:05:13;;;;;;;0.70;0.20;;;22.10;99.90;;;;;;4980046;28;20447;-77
2022/07/31 06:07:43;;;;;;;0.70;0.10;;;22.10;99.90;;;;;;4981605;28;20466;-75
2022/07/31 06:10:18;;;;;;;0.70;0.10;;;22.10;99.90;;;;;;4977743;28;20466;-69
2022/07/31 06:12:48;;;;;;;0.70;0.17;;;22.10;99.90;;;;;;4972843;28;20446;-69
2022/07/31 06:15:16;;;;;;;0.70;0.10;;;22.20;99.90;;;;;;4986809;28;20595;-69
2022/07/31 06:17:44;;;;;;;0.70;0.20;;;22.20;99.90;;;;;;4991859;28;20488;-69
2022/07/31 06:20:13;;;;;;;2.30;2.20;;;22.20;99.90;;;;;;4984975;28;20472;-68
2022/07/31 06:22:42;;;;;;;0.70;0.10;;;22.20;99.90;;;;;;4992229;28;20444;-69
2022/07/31 06:25:11;;;;;;;0.70;0.10;;;22.20;99.90;;;;;;4992434;28;20453;-71
2022/07/31 06:27:41;;;;;;;0.70;0.10;;;22.20;99.90;;;;;;4992079;28;20544;-70
2022/07/31 06:30:15;;;;;;;0.70;0.10;;;22.20;99.90;;;;;;4992420;28;20949;-69
2022/07/31 06:32:43;;;;;;;0.70;0.10;;;22.20;99.90;;;;;;4991826;28;20528;-69
2022/07/31 06:35:11;;;;;;;0.70;0.10;;;22.20;99.90;;;;;;4991202;28;20514;-70
2022/07/31 06:37:39;;;;;;;0.70;0.10;;;22.30;99.90;;;;;;4991614;28;20473;-69
2022/07/31 06:40:08;;;;;;;0.70;0.10;;;22.40;99.90;;;;;;4991946;28;20449;-70
2022/07/31 06:42:36;;;;;;;0.70;0.13;;;22.50;99.90;;;;;;4991995;28;20445;-69
2022/07/31 06:45:05;;;;;;;0.70;0.10;;;22.50;99.90;;;;;;4991970;28;20447;-70
2022/07/31 06:47:34;;;;;;;0.70;0.20;;;22.60;99.90;;;;;;4991984;28;20477;-69
2022/07/31 06:50:02;;;;;;;0.70;0.20;;;22.70;99.90;;;;;;4991568;28;20813;-70
2022/07/31 06:52:30;;;;;;;0.70;0.10;;;22.70;99.90;;;;;;4975337;28;20545;-70
2022/07/31 06:55:02;;;;;;;0.70;0.10;;;22.80;99.90;;;;;;4975726;28;20572;-71
2022/07/31 06:57:30;;;;;;;0.70;0.10;;;22.80;99.90;;;;;;4975629;28;20498;-70
2022/07/31 06:59:58;;;;;;;0.70;0.10;;;22.90;99.90;;;;;;4975575;28;20450;-69
2022/07/31 07:02:26;;;;;;;0.70;0.20;;;22.90;99.90;;;;;;4976008;28;20446;-70
2022/07/31 07:04:55;;;;;;;0.70;0.10;;;23.00;99.90;;;;;;4975532;28;20919;-70
2022/07/31 07:07:35;;;;;;;0.70;0.10;;;23.00;99.90;;;;;;4981074;28;20507;-71
2022/07/31 07:10:04;;;;;;;0.70;0.20;;;23.10;99.90;;;;;;4995098;28;21012;-70
2022/07/31 07:12:32;;;;;;;0.70;0.13;;;23.10;99.90;;;;;;4995019;28;20824;-68
2022/07/31 07:15:01;;;;;;;0.70;0.10;;;23.10;99.90;;;;;;4978927;28;20568;-69
2022/07/31 07:17:29;;;;;;;0.70;0.20;;;23.20;99.90;;;;;;4975209;28;20840;-70
2022/07/31 07:19:58;;;;;;;0.70;0.10;;;23.20;99.90;;;;;;4983873;28;20438;-69
2022/07/31 07:22:26;;;;;;;0.70;0.20;;;23.30;99.90;;;;;;4975394;28;20466;-72
2022/07/31 07:24:59;;;;;;;0.70;0.20;;;23.30;99.90;;;;;;4975111;28;20442;-72
2022/07/31 07:27:27;;;;;;;0.70;0.20;;;23.30;99.90;;;;;;4975012;28;20493;-71
2022/07/31 07:29:56;;;;;;;0.70;0.10;;;23.40;99.90;;;;;;4993982;28;20442;-72
2022/07/31 07:32:24;;;;;;;0.70;0.20;;;23.50;99.90;;;;;;4994228;28;20449;-71
2022/07/31 07:34:52;;;;;;;0.70;0.20;;;;;;;;;;4994845;28;21012;-71
2022/07/31 07:37:28;;;;;;;0.70;0.10;;;23.70;99.90;;;;;;4994263;28;20480;-71
2022/07/31 07:39:58;;;;;;;0.70;0.20;;;23.70;99.90;;;;;;4994737;28;20445;-72
2022/07/31 07:42:30;;;;;;;0.70;0.20;;;23.70;99.90;;;;;;4994637;28;20524;-72
2022/07/31 07:44:58;;;;;;;0.70;0.20;;;22.90;99.90;;;;;;4994471;28;20461;-71
2022/07/31 07:47:29;;;;;;;0.70;0.20;;;;;;;;;;4993848;28;20497;-71
2022/07/31 07:50:17;;;;;;;0.70;0.20;;;24.00;99.90;;;;;;4980256;28;20445;-72
2022/07/31 07:52:47;;;;;;;0.70;0.10;;;24.10;99.90;;;;;;4983616;28;20851;-71
2022/07/31 07:55:15;;;;;;;0.70;0.10;;;24.10;99.90;;;;;;4983227;28;20519;-72
2022/07/31 07:57:44;;;;;;;0.70;0.20;;;24.10;99.90;;;;;;4983096;28;20866;-76
2022/07/31 08:00:13;;;;;;;0.70;0.20;;;24.10;99.90;;;;;;4983344;28;20508;-71
2022/07/31 08:02:43;;;;;;;0.70;0.10;;;24.10;99.90;;;;;;4978940;28;20446;-72
2022/07/31 08:05:11;;;;;;;0.70;0.10;;;24.10;99.90;;;;;;4978353;28;20461;-69
2022/07/31 08:07:43;;;;;;;0.73;0.30;;;24.00;99.90;;;;;;4985448;28;20501;-70
2022/07/31 08:10:17;;;;;;;0.70;0.10;;;24.00;99.90;;;;;;4984515;28;20445;-70
2022/07/31 08:12:45;;;;;;;0.70;0.20;;;24.00;99.90;;;;;;4994286;28;20818;-66
2022/07/31 08:15:13;;;;;;;0.70;0.10;;;24.10;99.90;;;;;;4986896;28;20449;-70
2022/07/31 08:17:41;;;;;;;0.70;0.20;;;24.10;99.90;;;;;;4991487;28;20477;-68
2022/07/31 08:20:10;;;;;;;0.70;0.10;;;24.30;99.90;;;;;;4991031;28;20499;-66
2022/07/31 08:22:38;;;;;;;0.70;0.10;;;24.30;99.90;;;;;;4983887;28;20479;-71
2022/07/31 08:25:07;;;;;;;0.70;0.20;;;24.50;99.90;;;;;;4987746;28;20468;-69
2022/07/31 08:27:43;;;;;;;0.70;0.10;;;24.50;99.90;;;;;;4979862;28;20500;-69
2022/07/31 08:30:14;;;;;;;0.70;0.10;;;24.60;99.90;;;;;;4990722;28;20499;-72
2022/07/31 08:32:42;;;;;;;0.70;0.20;;;24.60;99.90;;;;;;4979438;28;20449;-69
2022/07/31 08:35:10;;;;;;;0.70;0.20;;;24.70;99.90;;;;;;4988304;28;20552;-71
2022/07/31 08:37:40;;;;;;;0.70;0.10;;;24.80;99.90;;;;;;4983588;28;20468;-71
2022/07/31 08:40:29;;;;;;;0.93;0.40;;;24.90;99.90;;;;;;4973913;28;20447;-70
2022/07/31 08:42:59;;;;;;;0.70;0.10;;;24.90;99.90;;;;;;4979722;28;20442;-71
2022/07/31 08:45:28;;;;;;;0.70;0.10;;;24.90;99.90;;;;;;4973610;28;20545;-69
2022/07/31 08:47:59;;;;;;;0.70;0.10;;;25.00;99.90;;;;;;4973237;28;20469;-71
2022/07/31 08:50:28;;;;;;;0.70;0.13;;;25.20;99.90;;;;;;4989388;28;20446;-71
2022/07/31 08:52:57;;;;;;;0.70;0.10;;;25.30;99.90;;;;;;4985801;28;20456;-69
2022/07/31 08:55:26;;;;;;;0.70;0.20;;;25.40;99.90;;;;;;4983702;28;20497;-69
2022/07/31 08:58:15;;;;;;;0.70;0.10;;;25.50;99.90;;;;;;4993552;28;20450;-70
2022/07/31 09:00:43;;;;;;;0.70;0.10;;;25.60;99.90;;;;;;4993788;28;20445;-69
2022/07/31 09:03:11;;;;;;;0.70;0.10;;;25.80;99.90;;;;;;4993964;28;20832;-70
2022/07/31 09:05:39;;;;;;;0.70;0.10;;;25.90;99.90;;;;;;4994022;28;20449;-69
2022/07/31 09:08:09;;;;;;;0.70;0.20;;;25.90;99.90;;;;;;4993379;28;20488;-68
2022/07/31 09:10:42;;;;;;;0.70;0.20;;;26.00;99.90;;;;;;4990645;28;20474;-68
2022/07/31 09:13:19;;;;;;;0.70;0.20;;;26.00;99.90;;;;;;4975082;28;20457;-69
2022/07/31 09:15:47;;;;;;;1.10;0.20;;;26.00;99.90;;;;;;4973544;28;21033;-69
2022/07/31 09:18:17;;;;;;;0.70;0.10;;;26.00;99.90;;;;;;4976983;28;20958;-68
2022/07/31 09:20:54;;;;;;;0.70;0.10;;;26.10;99.90;;;;;;4974990;28;20453;-69
2022/07/31 09:23:22;;;;;;;0.70;0.20;;;26.10;99.90;;;;;;4974282;28;20819;-69
2022/07/31 09:25:55;;;;;;;0.70;0.20;;;26.10;99.90;;;;;;4973809;28;20897;-69
2022/07/31 09:28:33;;;;;;;0.70;0.20;;;26.20;99.90;;;;;;4983804;28;20808;-68
2022/07/31 09:31:02;;;;;;;0.70;0.20;;;26.20;99.90;;;;;;4993085;28;20449;-69
2022/07/31 09:33:30;;;;;;;0.70;0.10;;;26.10;99.90;;;;;;4993102;28;20449;-68
2022/07/31 09:35:59;;;;;;;0.70;0.10;;;26.30;99.90;;;;;;4987488;28;20474;-69
2022/07/31 09:38:32;;;;;;;0.70;0.20;;;26.30;99.90;;;;;;4973766;28;20813;-68
2022/07/31 09:41:10;;;;;;;0.70;0.10;;;26.50;99.90;;;;;;4973606;28;20450;-69
2022/07/31 09:44:01;;;;;;;0.90;0.53;;;26.70;99.90;;;;;;4974554;28;20971;-69
2022/07/31 09:46:41;;;;;;;0.70;0.17;;;26.80;99.90;;;;;;4973323;28;20561;-69
2022/07/31 09:49:09;;;;;;;0.70;0.20;;;26.80;99.90;;;;;;4973501;28;20528;-68
2022/07/31 09:51:39;;;;;;;0.70;0.20;;;27.00;99.90;;;;;;4973409;28;20457;-70
2022/07/31 09:54:08;;;;;;;0.70;0.20;;;26.90;99.90;;;;;;4973049;28;20938;-70
2022/07/31 09:56:36;;;;;;;0.70;0.20;;;27.00;99.90;;;;;;4973530;28;20508;-68
2022/07/31 09:59:07;;;;;;;0.70;0.10;;;27.00;99.90;;;;;;4976338;28;20454;-69
2022/07/31 10:01:40;;;;;;;0.80;0.40;;;27.00;99.90;;;;;;4978500;28;20859;-69
2022/07/31 10:04:10;;;;;;;0.70;0.10;;;26.90;99.90;;;;;;4972990;28;20489;-69
2022/07/31 10:06:39;;;;;;;0.80;0.50;;;26.90;99.90;;;;;;4973828;28;20480;-68
2022/07/31 10:09:07;;;;;;;0.80;0.47;;;26.90;99.90;;;;;;4972797;28;20976;-69
2022/07/31 10:11:38;;;;;;;0.70;0.10;;;26.70;99.90;;;;;;4972992;28;20452;-68
2022/07/31 10:14:11;;;;;;;0.97;0.60;;;26.60;99.90;;;;;;4973249;28;20450;-69
2022/07/31 10:16:41;;;;;;;0.70;0.20;;;26.60;99.90;;;;;;4973575;28;20565;-68
2022/07/31 10:19:13;;;;;;;0.70;0.20;;;26.50;99.90;;;;;;4972955;28;20458;-69
2022/07/31 10:21:43;;;;;;;1.57;0.70;;;26.50;99.90;;;;;;4973381;28;20967;-69
2022/07/31 10:24:12;;;;;;;0.70;0.20;;;26.50;99.90;;;;;;4973519;28;20942;-69
2022/07/31 10:26:41;;;;;;;0.70;0.20;;;26.50;99.90;;;;;;4973070;28;20548;-69
2022/07/31 10:29:30;;;;;;;0.70;0.20;;;26.50;99.90;;;;;;4991597;28;20526;-69
2022/07/31 10:32:00;;;;;;;0.70;0.20;;;26.60;99.90;;;;;;5024919;23;20532;-73
2022/07/31 10:34:29;;;;;;;0.70;0.20;;;26.60;99.90;;;;;;4991583;28;20453;-71
2022/07/31 10:37:03;;;;;;;0.70;0.20;;;26.60;99.90;;;;;;4984757;28;20481;-72
2022/07/31 10:39:45;;;;;;;0.70;0.10;;;26.60;99.90;;;;;;4989366;28;20445;-73
2022/07/31 10:42:25;;;;;;;0.70;0.20;;;26.60;99.90;;;;;;4992521;28;20468;-72
2022/07/31 10:45:02;;;;;;;0.70;0.10;;;26.60;99.90;;;;;;4993286;28;20457;-71
2022/07/31 10:47:30;;;;;;;0.97;0.57;;;26.70;99.90;;;;;;4993106;28;20436;-71
2022/07/31 10:49:58;;;;;;;0.70;0.20;;;26.70;99.90;;;;;;4984852;28;20945;-72
2022/07/31 10:52:28;;;;;;;0.70;0.10;;;26.80;99.90;;;;;;4993754;28;20492;-71
2022/07/31 10:54:57;;;;;;;0.70;0.10;;;26.80;99.90;;;;;;4995046;28;20437;-71
2022/07/31 10:57:26;;;;;;;1.40;1.13;;;27.00;99.90;;;;;;4994915;28;20548;-71
2022/07/31 10:59:56;;;;;;;0.70;0.10;;;27.00;99.90;;;;;;4995566;28;20450;-71
2022/07/31 11:02:31;;;;;;;0.70;0.20;;;27.10;99.90;;;;;;4994283;28;20569;-70
2022/07/31 11:05:12;;;;;;;0.70;0.17;;;27.10;99.90;;;;;;4994963;28;20445;-70
2022/07/31 11:07:40;;;;;;;0.70;0.10;;;27.10;99.90;;;;;;4989590;28;20459;-70
2022/07/31 11:10:14;;;;;;;0.70;0.20;;;27.10;99.90;;;;;;4994598;28;20448;-71
2022/07/31 11:12:42;;;;;;;0.70;0.20;;;27.00;99.90;;;;;;4993016;28;20477;-70
2022/07/31 11:15:23;;;;;;;0.70;0.13;;;27.00;99.90;;;;;;4995775;28;20445;-73
2022/07/31 11:17:51;;;;;;;0.70;0.20;;;27.00;99.90;;;;;;4991140;28;20492;-71
2022/07/31 11:20:39;;;;;;;0.70;0.13;;;27.10;99.90;;;;;;4989955;28;20449;-70
2022/07/31 11:23:08;;;;;;;0.70;0.20;;;27.20;99.90;;;;;;4989411;28;20487;-71
2022/07/31 11:25:37;;;;;;;0.70;0.10;;;27.20;99.90;;;;;;4993481;28;20453;-73
2022/07/31 11:28:13;;;;;;;0.70;0.20;;;27.30;99.90;;;;;;4987925;28;20900;-73
2022/07/31 11:30:50;;;;;;;0.70;0.20;;;27.30;99.90;;;;;;4983863;28;20448;-71
2022/07/31 11:33:30;;;;;;;0.70;0.20;;;27.40;99.90;;;;;;4984631;28;20923;-70
2022/07/31 11:36:10;;;;;;;0.70;0.13;;;27.50;99.90;;;;;;4983804;28;20879;-73
2022/07/31 11:38:40;;;;;;;0.70;0.10;;;27.70;99.90;;;;;;4982481;28;20493;-73
2022/07/31 11:41:08;;;;;;;0.70;0.20;;;27.80;99.90;;;;;;4983228;28;20454;-75
2022/07/31 11:43:38;;;;;;;0.70;0.10;;;28.10;99.90;;;;;;4986612;28;20465;-74
2022/07/31 11:46:07;;;;;;;0.70;0.10;;;28.20;99.90;;;;;;4982960;28;20953;-75
2022/07/31 11:48:38;;;;;;;0.70;0.20;;;28.30;99.90;;;;;;4988512;28;20467;-73
2022/07/31 11:51:17;;;;;;;0.77;0.23;;;28.40;99.90;;;;;;4994379;28;20453;-74
2022/07/31 11:53:46;;;;;;;0.70;0.20;;;28.40;99.90;;;;;;4992809;28;20878;-76
2022/07/31 11:56:24;;;;;;;0.70;0.10;;;28.40;99.90;;;;;;4994743;28;20453;-75
2022/07/31 11:58:53;;;;;;;0.70;0.13;;;28.50;99.90;;;;;;4992882;28;20629;-75
2022/07/31 12:01:27;;;;;;;0.70;0.20;;;28.60;99.90;;;;;;4989277;28;20889;-74
2022/07/31 12:03:55;;;;;;;0.70;0.10;;;28.60;99.90;;;;;;4993705;28;20445;-74
2022/07/31 12:06:23;;;;;;;0.70;0.10;;;28.80;99.90;;;;;;4995054;28;20449;-73
2022/07/31 12:08:52;;;;;;;0.70;0.20;;;28.90;99.90;;;;;;4995059;28;20977;-74
2022/07/31 12:11:21;;;;;;;0.70;0.10;;;;;;;;;;4995053;28;20460;-75
2022/07/31 12:13:49;;;;;;;0.70;0.20;;;28.90;99.90;;;;;;4999315;28;20523;-75
2022/07/31 12:16:18;;;;;;;0.70;0.20;;;29.00;99.90;;;;;;4993984;28;20481;-73
2022/07/31 12:18:50;;;;;;;0.70;0.20;;;29.00;99.90;;;;;;4993891;28;20493;-76
2022/07/31 12:21:19;;;;;;;0.70;0.20;;;29.00;99.90;;;;;;4993119;28;20562;-73
2022/07/31 12:23:48;;;;;;;0.70;0.10;;;29.00;99.90;;;;;;4993185;28;20460;-75
2022/07/31 12:26:23;;;;;;;0.70;0.20;;;29.00;99.90;;;;;;4988630;28;20459;-74
2022/07/31 12:28:59;;;;;;;0.70;0.20;;;29.10;99.90;;;;;;4984077;28;20448;-75
2022/07/31 12:31:27;;;;;;;0.90;0.20;;;29.20;99.90;;;;;;4993109;28;20444;-75
2022/07/31 12:33:57;;;;;;;0.70;0.20;;;29.20;99.90;;;;;;4993580;28;20925;-74
2022/07/31 12:36:24;;;;;;;0.70;0.20;;;29.20;99.90;;;;;;4994534;28;20449;-75
2022/07/31 12:39:00;;;;;;;0.70;0.20;;;29.30;99.90;;;;;;4993740;28;21161;-74
2022/07/31 12:41:28;;;;;;;0.70;0.20;;;29.40;99.90;;;;;;4993659;28;20898;-75
2022/07/31 12:43:56;;;;;;;0.70;0.20;;;29.60;99.90;;;;;;4980660;28;20446;-74
2022/07/31 12:46:35;;;;;;;0.80;0.40;;;29.60;99.90;;;;;;4974035;28;20452;-74
2022/07/31 12:49:07;;;;;;;0.70;0.20;;;29.60;99.90;;;;;;4980107;28;20456;-73
2022/07/31 12:51:35;;;;;;;1.00;0.57;;;29.80;99.90;;;;;;4987307;28;20469;-73
2022/07/31 12:54:14;;;;;;;0.70;0.20;;;29.80;99.90;;;;;;4989544;28;21184;-73
2022/07/31 12:56:42;;;;;;;0.70;0.10;;;30.00;99.90;;;;;;4991595;28;20453;-72
2022/07/31 12:59:10;;;;;;;0.70;0.13;;;30.30;99.90;;;;;;4990672;28;20500;-71
2022/07/31 13:01:38;;;;;;;0.80;0.20;;;30.40;99.90;;;;;;4993104;28;20446;-76
2022/07/31 13:04:08;;;;;;;0.70;0.20;;;30.40;99.90;;;;;;4993330;28;20520;-72
2022/07/31 13:06:49;;;;;;;0.70;0.10;;;30.30;99.90;;;;;;4992999;28;20459;-72